sensor_id;sensor_type;location;lat;lon;timestamp;P1;durP1;ratioP1;P2;durP2;ratioP2
73850;SDS011;62190;51.548;5.688;2023-07-09T00:00:50;22.35;;;18.55;;
73850;SDS011;62190;51.548;5.688;2023-07-09T00:03:18;22.42;;;18.60;;
73850;SDS011;62190;51.548;5.688;2023-07-09T00:05:46;23.65;;;18.82;;
73850;SDS011;62190;51.548;5.688;2023-07-09T00:08:37;21.68;;;17.55;;
73850;SDS011;62190;51.548;5.688;2023-07-09T00:10:57;22.07;;;18.05;;
73850;SDS011;62190;51.548;5.688;2023-07-09T00:13:25;25.75;;;18.82;;
73850;SDS011;62190;51.548;5.688;2023-07-09T00:15:55;24.70;;;18.12;;
73850;SDS011;62190;51.548;5.688;2023-07-09T00:18:24;22.20;;;18.25;;
73850;SDS011;62190;51.548;5.688;2023-07-09T00:20:51;25.48;;;19.30;;
73850;SDS011;62190;51.548;5.688;2023-07-09T00:23:18;25.27;;;19.82;;
73850;SDS011;62190;51.548;5.688;2023-07-09T00:25:46;29.25;;;20.57;;
73850;SDS011;62190;51.548;5.688;2023-07-09T00:28:14;29.60;;;20.43;;
73850;SDS011;62190;51.548;5.688;2023-07-09T00:30:45;24.82;;;19.00;;
73850;SDS011;62190;51.548;5.688;2023-07-09T00:33:13;25.90;;;20.20;;
73850;SDS011;62190;51.548;5.688;2023-07-09T00:35:45;28.60;;;20.92;;
73850;SDS011;62190;51.548;5.688;2023-07-09T00:38:20;32.40;;;23.02;;
73850;SDS011;62190;51.548;5.688;2023-07-09T00:41:05;31.55;;;22.60;;
73850;SDS011;62190;51.548;5.688;2023-07-09T00:48:53;30.17;;;21.95;;
73850;SDS011;62190;51.548;5.688;2023-07-09T00:51:25;28.60;;;22.22;;
73850;SDS011;62190;51.548;5.688;2023-07-09T00:53:55;25.25;;;20.57;;
73850;SDS011;62190;51.548;5.688;2023-07-09T00:56:32;25.20;;;20.55;;
73850;SDS011;62190;51.548;5.688;2023-07-09T00:59:01;24.72;;;19.50;;
73850;SDS011;62190;51.548;5.688;2023-07-09T01:01:29;26.23;;;20.17;;
73850;SDS011;62190;51.548;5.688;2023-07-09T01:03:57;26.15;;;20.68;;
73850;SDS011;62190;51.548;5.688;2023-07-09T01:06:34;27.67;;;20.00;;
73850;SDS011;62190;51.548;5.688;2023-07-09T01:09:03;25.00;;;20.27;;
73850;SDS011;62190;51.548;5.688;2023-07-09T01:11:31;26.48;;;20.37;;
73850;SDS011;62190;51.548;5.688;2023-07-09T01:13:59;26.35;;;22.10;;
73850;SDS011;62190;51.548;5.688;2023-07-09T01:16:29;28.73;;;20.60;;
73850;SDS011;62190;51.548;5.688;2023-07-09T01:18:58;25.70;;;20.72;;
73850;SDS011;62190;51.548;5.688;2023-07-09T01:21:27;30.50;;;22.45;;
73850;SDS011;62190;51.548;5.688;2023-07-09T01:23:55;27.10;;;21.33;;
73850;SDS011;62190;51.548;5.688;2023-07-09T01:26:24;26.02;;;20.97;;
73850;SDS011;62190;51.548;5.688;2023-07-09T01:28:53;29.77;;;22.30;;
73850;SDS011;62190;51.548;5.688;2023-07-09T01:31:21;27.77;;;20.37;;
73850;SDS011;62190;51.548;5.688;2023-07-09T01:33:48;27.82;;;21.80;;
73850;SDS011;62190;51.548;5.688;2023-07-09T01:36:18;29.07;;;21.77;;
73850;SDS011;62190;51.548;5.688;2023-07-09T01:38:50;29.75;;;22.45;;
73850;SDS011;62190;51.548;5.688;2023-07-09T01:41:20;27.52;;;20.82;;
73850;SDS011;62190;51.548;5.688;2023-07-09T01:43:47;35.92;;;27.20;;
73850;SDS011;62190;51.548;5.688;2023-07-09T01:46:15;37.13;;;29.65;;
73850;SDS011;62190;51.548;5.688;2023-07-09T01:48:42;39.55;;;28.60;;
73850;SDS011;62190;51.548;5.688;2023-07-09T01:51:11;32.67;;;25.62;;
73850;SDS011;62190;51.548;5.688;2023-07-09T01:53:42;32.95;;;25.57;;
73850;SDS011;62190;51.548;5.688;2023-07-09T01:56:11;31.70;;;25.37;;
73850;SDS011;62190;51.548;5.688;2023-07-09T01:58:38;35.43;;;25.62;;
73850;SDS011;62190;51.548;5.688;2023-07-09T02:01:07;35.13;;;26.77;;
73850;SDS011;62190;51.548;5.688;2023-07-09T02:03:35;34.40;;;25.57;;
73850;SDS011;62190;51.548;5.688;2023-07-09T02:06:02;33.20;;;27.40;;
73850;SDS011;62190;51.548;5.688;2023-07-09T02:08:31;37.83;;;29.00;;
73850;SDS011;62190;51.548;5.688;2023-07-09T02:10:59;44.05;;;32.85;;
73850;SDS011;62190;51.548;5.688;2023-07-09T02:13:26;37.33;;;28.27;;
73850;SDS011;62190;51.548;5.688;2023-07-09T02:15:53;37.63;;;29.27;;
73850;SDS011;62190;51.548;5.688;2023-07-09T02:18:20;35.98;;;29.25;;
73850;SDS011;62190;51.548;5.688;2023-07-09T02:20:48;44.03;;;33.18;;
73850;SDS011;62190;51.548;5.688;2023-07-09T02:23:15;46.95;;;32.53;;
73850;SDS011;62190;51.548;5.688;2023-07-09T02:25:43;41.00;;;31.10;;
73850;SDS011;62190;51.548;5.688;2023-07-09T02:28:15;39.48;;;31.17;;
73850;SDS011;62190;51.548;5.688;2023-07-09T02:30:49;42.93;;;30.77;;
73850;SDS011;62190;51.548;5.688;2023-07-09T02:33:17;39.63;;;30.43;;
73850;SDS011;62190;51.548;5.688;2023-07-09T02:35:47;42.98;;;31.45;;
73850;SDS011;62190;51.548;5.688;2023-07-09T02:38:14;43.52;;;32.65;;
73850;SDS011;62190;51.548;5.688;2023-07-09T02:40:41;43.55;;;33.25;;
73850;SDS011;62190;51.548;5.688;2023-07-09T02:43:08;45.38;;;34.18;;
73850;SDS011;62190;51.548;5.688;2023-07-09T02:45:36;48.05;;;32.80;;
73850;SDS011;62190;51.548;5.688;2023-07-09T02:48:03;45.43;;;33.85;;
73850;SDS011;62190;51.548;5.688;2023-07-09T02:50:31;44.20;;;34.73;;
73850;SDS011;62190;51.548;5.688;2023-07-09T02:52:58;44.98;;;32.35;;
73850;SDS011;62190;51.548;5.688;2023-07-09T02:55:26;45.55;;;33.95;;
73850;SDS011;62190;51.548;5.688;2023-07-09T02:57:54;45.23;;;34.30;;
73850;SDS011;62190;51.548;5.688;2023-07-09T03:00:23;42.20;;;33.28;;
73850;SDS011;62190;51.548;5.688;2023-07-09T03:02:50;53.75;;;38.05;;
73850;SDS011;62190;51.548;5.688;2023-07-09T03:05:21;46.25;;;34.23;;
73850;SDS011;62190;51.548;5.688;2023-07-09T03:07:48;45.90;;;36.13;;
73850;SDS011;62190;51.548;5.688;2023-07-09T03:10:15;53.00;;;37.95;;
73850;SDS011;62190;51.548;5.688;2023-07-09T03:12:43;48.55;;;37.25;;
73850;SDS011;62190;51.548;5.688;2023-07-09T03:15:12;48.33;;;35.48;;
73850;SDS011;62190;51.548;5.688;2023-07-09T03:17:39;49.70;;;35.03;;
73850;SDS011;62190;51.548;5.688;2023-07-09T03:20:06;49.00;;;36.00;;
73850;SDS011;62190;51.548;5.688;2023-07-09T03:22:34;43.87;;;33.45;;
73850;SDS011;62190;51.548;5.688;2023-07-09T03:25:03;48.68;;;35.92;;
73850;SDS011;62190;51.548;5.688;2023-07-09T03:27:30;55.73;;;39.92;;
73850;SDS011;62190;51.548;5.688;2023-07-09T03:29:58;47.80;;;36.58;;
73850;SDS011;62190;51.548;5.688;2023-07-09T03:32:26;49.98;;;38.33;;
73850;SDS011;62190;51.548;5.688;2023-07-09T03:34:53;47.45;;;34.95;;
73850;SDS011;62190;51.548;5.688;2023-07-09T03:37:20;46.53;;;36.40;;
73850;SDS011;62190;51.548;5.688;2023-07-09T03:39:48;57.80;;;40.70;;
73850;SDS011;62190;51.548;5.688;2023-07-09T03:42:16;52.65;;;39.38;;
73850;SDS011;62190;51.548;5.688;2023-07-09T03:44:44;50.95;;;39.03;;
73850;SDS011;62190;51.548;5.688;2023-07-09T03:47:13;49.83;;;38.98;;
73850;SDS011;62190;51.548;5.688;2023-07-09T03:49:40;50.58;;;39.60;;
73850;SDS011;62190;51.548;5.688;2023-07-09T03:52:07;50.28;;;37.60;;
73850;SDS011;62190;51.548;5.688;2023-07-09T03:54:35;51.92;;;39.73;;
73850;SDS011;62190;51.548;5.688;2023-07-09T03:57:02;50.25;;;41.85;;
73850;SDS011;62190;51.548;5.688;2023-07-09T03:59:30;49.63;;;39.65;;
73850;SDS011;62190;51.548;5.688;2023-07-09T04:01:57;57.65;;;43.60;;
73850;SDS011;62190;51.548;5.688;2023-07-09T04:04:26;55.95;;;42.80;;
73850;SDS011;62190;51.548;5.688;2023-07-09T04:06:53;53.15;;;42.13;;
73850;SDS011;62190;51.548;5.688;2023-07-09T04:09:21;48.92;;;40.63;;
73850;SDS011;62190;51.548;5.688;2023-07-09T04:11:49;52.40;;;38.95;;
73850;SDS011;62190;51.548;5.688;2023-07-09T04:14:16;44.93;;;37.45;;
73850;SDS011;62190;51.548;5.688;2023-07-09T04:16:43;46.55;;;36.93;;
73850;SDS011;62190;51.548;5.688;2023-07-09T04:19:11;38.33;;;32.42;;
73850;SDS011;62190;51.548;5.688;2023-07-09T04:21:38;45.55;;;34.48;;
73850;SDS011;62190;51.548;5.688;2023-07-09T04:24:07;37.30;;;30.70;;
73850;SDS011;62190;51.548;5.688;2023-07-09T04:26:36;34.23;;;27.37;;
73850;SDS011;62190;51.548;5.688;2023-07-09T04:29:04;34.60;;;28.35;;
73850;SDS011;62190;51.548;5.688;2023-07-09T04:31:32;36.05;;;28.90;;
73850;SDS011;62190;51.548;5.688;2023-07-09T04:33:59;33.08;;;28.12;;
73850;SDS011;62190;51.548;5.688;2023-07-09T04:36:26;30.60;;;26.40;;
73850;SDS011;62190;51.548;5.688;2023-07-09T04:38:54;35.48;;;28.83;;
73850;SDS011;62190;51.548;5.688;2023-07-09T04:41:21;29.48;;;25.40;;
73850;SDS011;62190;51.548;5.688;2023-07-09T04:43:48;31.07;;;27.70;;
73850;SDS011;62190;51.548;5.688;2023-07-09T04:46:16;32.45;;;27.35;;
73850;SDS011;62190;51.548;5.688;2023-07-09T04:48:44;34.10;;;27.87;;
73850;SDS011;62190;51.548;5.688;2023-07-09T04:51:12;33.08;;;29.37;;
73850;SDS011;62190;51.548;5.688;2023-07-09T04:53:39;32.80;;;29.27;;
73850;SDS011;62190;51.548;5.688;2023-07-09T04:56:08;31.42;;;27.87;;
73850;SDS011;62190;51.548;5.688;2023-07-09T04:58:36;32.45;;;26.75;;
73850;SDS011;62190;51.548;5.688;2023-07-09T05:01:05;32.15;;;26.45;;
73850;SDS011;62190;51.548;5.688;2023-07-09T05:03:32;31.25;;;26.30;;
73850;SDS011;62190;51.548;5.688;2023-07-09T05:05:59;29.25;;;26.12;;
73850;SDS011;62190;51.548;5.688;2023-07-09T05:08:27;30.97;;;24.80;;
73850;SDS011;62190;51.548;5.688;2023-07-09T05:10:55;29.95;;;24.85;;
73850;SDS011;62190;51.548;5.688;2023-07-09T05:13:24;27.52;;;24.23;;
73850;SDS011;62190;51.548;5.688;2023-07-09T05:15:52;30.27;;;25.82;;
73850;SDS011;62190;51.548;5.688;2023-07-09T05:18:20;28.90;;;25.90;;
73850;SDS011;62190;51.548;5.688;2023-07-09T05:20:48;29.65;;;26.33;;
73850;SDS011;62190;51.548;5.688;2023-07-09T05:23:15;30.32;;;25.20;;
73850;SDS011;62190;51.548;5.688;2023-07-09T05:25:42;34.73;;;28.55;;
73850;SDS011;62190;51.548;5.688;2023-07-09T05:28:10;30.60;;;26.75;;
73850;SDS011;62190;51.548;5.688;2023-07-09T05:30:40;30.97;;;27.22;;
73850;SDS011;62190;51.548;5.688;2023-07-09T05:33:09;31.45;;;28.25;;
73850;SDS011;62190;51.548;5.688;2023-07-09T05:35:36;29.72;;;26.50;;
73850;SDS011;62190;51.548;5.688;2023-07-09T05:38:03;32.60;;;29.30;;
73850;SDS011;62190;51.548;5.688;2023-07-09T05:40:31;32.70;;;29.15;;
73850;SDS011;62190;51.548;5.688;2023-07-09T05:43:00;32.17;;;29.07;;
73850;SDS011;62190;51.548;5.688;2023-07-09T05:45:27;30.85;;;27.55;;
73850;SDS011;62190;51.548;5.688;2023-07-09T05:47:54;29.90;;;26.85;;
73850;SDS011;62190;51.548;5.688;2023-07-09T05:50:22;28.52;;;25.48;;
73850;SDS011;62190;51.548;5.688;2023-07-09T05:52:49;29.95;;;26.82;;
73850;SDS011;62190;51.548;5.688;2023-07-09T05:55:16;29.52;;;26.37;;
73850;SDS011;62190;51.548;5.688;2023-07-09T05:57:43;33.92;;;27.70;;
73850;SDS011;62190;51.548;5.688;2023-07-09T06:00:11;27.70;;;24.92;;
73850;SDS011;62190;51.548;5.688;2023-07-09T06:02:39;28.38;;;25.20;;
73850;SDS011;62190;51.548;5.688;2023-07-09T06:05:08;28.02;;;23.92;;
73850;SDS011;62190;51.548;5.688;2023-07-09T06:07:37;26.93;;;22.48;;
73850;SDS011;62190;51.548;5.688;2023-07-09T06:10:05;25.50;;;22.48;;
73850;SDS011;62190;51.548;5.688;2023-07-09T06:12:33;25.75;;;21.37;;
73850;SDS011;62190;51.548;5.688;2023-07-09T06:15:01;25.92;;;23.22;;
73850;SDS011;62190;51.548;5.688;2023-07-09T06:17:28;24.07;;;20.55;;
73850;SDS011;62190;51.548;5.688;2023-07-09T06:19:57;25.48;;;22.73;;
73850;SDS011;62190;51.548;5.688;2023-07-09T06:22:24;29.98;;;23.20;;
73850;SDS011;62190;51.548;5.688;2023-07-09T06:24:53;24.67;;;21.75;;
73850;SDS011;62190;51.548;5.688;2023-07-09T06:27:20;24.63;;;21.90;;
73850;SDS011;62190;51.548;5.688;2023-07-09T06:29:48;24.52;;;20.75;;
73850;SDS011;62190;51.548;5.688;2023-07-09T06:32:16;24.27;;;21.05;;
73850;SDS011;62190;51.548;5.688;2023-07-09T06:34:43;22.60;;;20.37;;
73850;SDS011;62190;51.548;5.688;2023-07-09T06:37:10;23.00;;;19.15;;
73850;SDS011;62190;51.548;5.688;2023-07-09T06:39:38;20.00;;;17.90;;
73850;SDS011;62190;51.548;5.688;2023-07-09T06:42:05;22.77;;;20.27;;
73850;SDS011;62190;51.548;5.688;2023-07-09T06:44:33;21.85;;;19.55;;
73850;SDS011;62190;51.548;5.688;2023-07-09T06:47:00;20.55;;;18.35;;
73850;SDS011;62190;51.548;5.688;2023-07-09T06:49:28;18.40;;;16.65;;
73850;SDS011;62190;51.548;5.688;2023-07-09T06:51:55;19.15;;;17.15;;
73850;SDS011;62190;51.548;5.688;2023-07-09T06:54:22;21.68;;;16.05;;
73850;SDS011;62190;51.548;5.688;2023-07-09T06:56:49;18.15;;;14.63;;
73850;SDS011;62190;51.548;5.688;2023-07-09T06:59:17;19.37;;;16.70;;
73850;SDS011;62190;51.548;5.688;2023-07-09T07:01:44;18.17;;;15.43;;
73850;SDS011;62190;51.548;5.688;2023-07-09T07:04:11;17.12;;;14.58;;
73850;SDS011;62190;51.548;5.688;2023-07-09T07:06:39;20.92;;;15.05;;
73850;SDS011;62190;51.548;5.688;2023-07-09T07:09:06;19.98;;;14.28;;
73850;SDS011;62190;51.548;5.688;2023-07-09T07:11:34;15.70;;;13.20;;
73850;SDS011;62190;51.548;5.688;2023-07-09T07:14:01;18.70;;;13.62;;
73850;SDS011;62190;51.548;5.688;2023-07-09T07:16:28;15.18;;;13.18;;
73850;SDS011;62190;51.548;5.688;2023-07-09T07:18:56;14.95;;;12.88;;
73850;SDS011;62190;51.548;5.688;2023-07-09T07:21:23;16.35;;;12.88;;
73850;SDS011;62190;51.548;5.688;2023-07-09T07:23:50;12.45;;;11.15;;
73850;SDS011;62190;51.548;5.688;2023-07-09T07:26:18;13.13;;;9.50;;
73850;SDS011;62190;51.548;5.688;2023-07-09T07:28:45;15.80;;;12.37;;
73850;SDS011;62190;51.548;5.688;2023-07-09T07:31:13;15.18;;;10.90;;
73850;SDS011;62190;51.548;5.688;2023-07-09T07:33:40;9.65;;;8.60;;
73850;SDS011;62190;51.548;5.688;2023-07-09T07:36:07;12.43;;;9.55;;
73850;SDS011;62190;51.548;5.688;2023-07-09T07:38:35;15.18;;;9.20;;
73850;SDS011;62190;51.548;5.688;2023-07-09T07:41:03;10.53;;;8.33;;
73850;SDS011;62190;51.548;5.688;2023-07-09T07:43:30;11.90;;;10.00;;
73850;SDS011;62190;51.548;5.688;2023-07-09T07:45:57;10.75;;;9.00;;
73850;SDS011;62190;51.548;5.688;2023-07-09T07:48:24;11.38;;;7.80;;
73850;SDS011;62190;51.548;5.688;2023-07-09T07:50:57;11.88;;;9.08;;
73850;SDS011;62190;51.548;5.688;2023-07-09T07:53:30;11.83;;;8.68;;
73850;SDS011;62190;51.548;5.688;2023-07-09T07:55:57;10.38;;;8.85;;
73850;SDS011;62190;51.548;5.688;2023-07-09T07:58:26;12.50;;;7.10;;
73850;SDS011;62190;51.548;5.688;2023-07-09T08:00:56;10.50;;;6.75;;
73850;SDS011;62190;51.548;5.688;2023-07-09T08:03:24;11.22;;;6.87;;
73850;SDS011;62190;51.548;5.688;2023-07-09T08:05:52;7.67;;;6.45;;
73850;SDS011;62190;51.548;5.688;2023-07-09T08:08:19;8.65;;;6.50;;
73850;SDS011;62190;51.548;5.688;2023-07-09T08:10:47;8.85;;;5.87;;
73850;SDS011;62190;51.548;5.688;2023-07-09T08:13:16;8.68;;;5.72;;
73850;SDS011;62190;51.548;5.688;2023-07-09T08:15:44;7.00;;;5.30;;
73850;SDS011;62190;51.548;5.688;2023-07-09T08:18:12;13.90;;;6.10;;
73850;SDS011;62190;51.548;5.688;2023-07-09T08:20:42;9.13;;;5.05;;
73850;SDS011;62190;51.548;5.688;2023-07-09T08:23:11;8.95;;;4.83;;
73850;SDS011;62190;51.548;5.688;2023-07-09T08:25:39;5.80;;;4.60;;
73850;SDS011;62190;51.548;5.688;2023-07-09T08:28:06;9.98;;;5.03;;
73850;SDS011;62190;51.548;5.688;2023-07-09T08:30:34;7.03;;;4.47;;
73850;SDS011;62190;51.548;5.688;2023-07-09T08:33:02;14.83;;;6.65;;
73850;SDS011;62190;51.548;5.688;2023-07-09T08:35:29;14.90;;;6.67;;
73850;SDS011;62190;51.548;5.688;2023-07-09T08:37:57;12.00;;;5.87;;
73850;SDS011;62190;51.548;5.688;2023-07-09T08:40:25;7.47;;;4.37;;
73850;SDS011;62190;51.548;5.688;2023-07-09T08:42:53;5.42;;;4.10;;
73850;SDS011;62190;51.548;5.688;2023-07-09T08:45:32;6.05;;;4.25;;
73850;SDS011;62190;51.548;5.688;2023-07-09T08:50:54;7.28;;;3.60;;
73850;SDS011;62190;51.548;5.688;2023-07-09T08:53:23;5.33;;;4.08;;
73850;SDS011;62190;51.548;5.688;2023-07-09T08:55:54;8.93;;;4.40;;
73850;SDS011;62190;51.548;5.688;2023-07-09T08:58:25;6.17;;;4.05;;
73850;SDS011;62190;51.548;5.688;2023-07-09T09:00:55;8.95;;;4.37;;
73850;SDS011;62190;51.548;5.688;2023-07-09T09:06:12;6.60;;;4.20;;
73850;SDS011;62190;51.548;5.688;2023-07-09T09:08:48;8.43;;;4.85;;
73850;SDS011;62190;51.548;5.688;2023-07-09T09:13:51;5.37;;;4.08;;
73850;SDS011;62190;51.548;5.688;2023-07-09T09:16:27;5.37;;;4.22;;
73850;SDS011;62190;51.548;5.688;2023-07-09T09:18:58;6.15;;;4.67;;
73850;SDS011;62190;51.548;5.688;2023-07-09T09:24:03;7.53;;;4.12;;
73850;SDS011;62190;51.548;5.688;2023-07-09T09:26:44;5.40;;;4.15;;
73850;SDS011;62190;51.548;5.688;2023-07-09T09:29:13;5.30;;;4.10;;
73850;SDS011;62190;51.548;5.688;2023-07-09T09:31:43;6.85;;;4.08;;
73850;SDS011;62190;51.548;5.688;2023-07-09T09:34:19;7.80;;;4.92;;
73850;SDS011;62190;51.548;5.688;2023-07-09T09:36:47;6.90;;;4.70;;
73850;SDS011;62190;51.548;5.688;2023-07-09T09:39:16;6.60;;;4.20;;
73850;SDS011;62190;51.548;5.688;2023-07-09T09:41:44;7.40;;;4.90;;
73850;SDS011;62190;51.548;5.688;2023-07-09T09:44:31;7.55;;;4.37;;
73850;SDS011;62190;51.548;5.688;2023-07-09T09:46:44;7.22;;;4.45;;
73850;SDS011;62190;51.548;5.688;2023-07-09T09:49:13;9.30;;;4.95;;
73850;SDS011;62190;51.548;5.688;2023-07-09T09:51:42;6.10;;;5.00;;
73850;SDS011;62190;51.548;5.688;2023-07-09T09:54:18;7.55;;;3.95;;
73850;SDS011;62190;51.548;5.688;2023-07-09T09:56:48;4.30;;;3.33;;
73850;SDS011;62190;51.548;5.688;2023-07-09T09:59:38;6.97;;;3.87;;
73850;SDS011;62190;51.548;5.688;2023-07-09T10:01:47;6.35;;;4.20;;
73850;SDS011;62190;51.548;5.688;2023-07-09T10:04:18;8.30;;;4.45;;
73850;SDS011;62190;51.548;5.688;2023-07-09T10:06:47;7.72;;;4.58;;
73850;SDS011;62190;51.548;5.688;2023-07-09T10:11:47;7.70;;;4.37;;
73850;SDS011;62190;51.548;5.688;2023-07-09T10:17:15;4.87;;;3.65;;
73850;SDS011;62190;51.548;5.688;2023-07-09T10:19:52;6.62;;;4.70;;
73850;SDS011;62190;51.548;5.688;2023-07-09T10:23:22;6.10;;;4.53;;
73850;SDS011;62190;51.548;5.688;2023-07-09T10:25:13;4.90;;;3.90;;
73850;SDS011;62190;51.548;5.688;2023-07-09T10:28:05;7.47;;;4.60;;
73850;SDS011;62190;51.548;5.688;2023-07-09T10:30:43;7.97;;;4.35;;
73850;SDS011;62190;51.548;5.688;2023-07-09T10:33:13;9.35;;;4.58;;
73850;SDS011;62190;51.548;5.688;2023-07-09T10:36:11;6.70;;;3.83;;
73850;SDS011;62190;51.548;5.688;2023-07-09T10:40:50;7.40;;;3.85;;
73850;SDS011;62190;51.548;5.688;2023-07-09T10:43:25;5.90;;;4.15;;
73850;SDS011;62190;51.548;5.688;2023-07-09T10:45:56;8.60;;;4.35;;
73850;SDS011;62190;51.548;5.688;2023-07-09T10:48:37;6.15;;;3.70;;
73850;SDS011;62190;51.548;5.688;2023-07-09T10:51:00;7.65;;;4.25;;
73850;SDS011;62190;51.548;5.688;2023-07-09T10:53:33;5.72;;;3.80;;
73850;SDS011;62190;51.548;5.688;2023-07-09T10:56:19;5.65;;;4.00;;
73850;SDS011;62190;51.548;5.688;2023-07-09T11:01:38;8.50;;;4.33;;
73850;SDS011;62190;51.548;5.688;2023-07-09T11:04:20;7.70;;;3.65;;
73850;SDS011;62190;51.548;5.688;2023-07-09T11:06:46;6.87;;;3.90;;
73850;SDS011;62190;51.548;5.688;2023-07-09T11:09:25;7.35;;;4.28;;
73850;SDS011;62190;51.548;5.688;2023-07-09T11:11:59;5.28;;;4.10;;
73850;SDS011;62190;51.548;5.688;2023-07-09T11:14:39;7.37;;;4.25;;
73850;SDS011;62190;51.548;5.688;2023-07-09T11:17:14;5.25;;;3.90;;
73850;SDS011;62190;51.548;5.688;2023-07-09T11:19:43;5.85;;;4.33;;
73850;SDS011;62190;51.548;5.688;2023-07-09T11:22:22;6.10;;;4.15;;
73850;SDS011;62190;51.548;5.688;2023-07-09T11:25:05;8.45;;;4.05;;
73850;SDS011;62190;51.548;5.688;2023-07-09T11:27:49;6.50;;;3.85;;
73850;SDS011;62190;51.548;5.688;2023-07-09T11:30:22;7.58;;;4.05;;
73850;SDS011;62190;51.548;5.688;2023-07-09T11:32:56;10.30;;;4.17;;
73850;SDS011;62190;51.548;5.688;2023-07-09T11:35:41;5.87;;;3.42;;
73850;SDS011;62190;51.548;5.688;2023-07-09T11:38:19;10.60;;;4.33;;
73850;SDS011;62190;51.548;5.688;2023-07-09T11:40:51;6.33;;;3.85;;
73850;SDS011;62190;51.548;5.688;2023-07-09T11:43:31;7.67;;;3.75;;
73850;SDS011;62190;51.548;5.688;2023-07-09T11:46:07;6.05;;;4.28;;
73850;SDS011;62190;51.548;5.688;2023-07-09T11:48:41;6.10;;;3.75;;
73850;SDS011;62190;51.548;5.688;2023-07-09T11:51:17;9.43;;;3.83;;
73850;SDS011;62190;51.548;5.688;2023-07-09T11:53:47;8.83;;;5.85;;
73850;SDS011;62190;51.548;5.688;2023-07-09T11:56:13;4.95;;;3.87;;
73850;SDS011;62190;51.548;5.688;2023-07-09T11:58:54;6.30;;;3.77;;
73850;SDS011;62190;51.548;5.688;2023-07-09T12:01:23;5.80;;;3.72;;
73850;SDS011;62190;51.548;5.688;2023-07-09T12:03:58;5.47;;;3.72;;
73850;SDS011;62190;51.548;5.688;2023-07-09T12:06:29;6.65;;;3.40;;
73850;SDS011;62190;51.548;5.688;2023-07-09T12:08:58;6.28;;;3.40;;
73850;SDS011;62190;51.548;5.688;2023-07-09T12:11:27;5.53;;;3.37;;
73850;SDS011;62190;51.548;5.688;2023-07-09T12:14:18;6.42;;;3.42;;
73850;SDS011;62190;51.548;5.688;2023-07-09T12:16:29;8.10;;;4.17;;
73850;SDS011;62190;51.548;5.688;2023-07-09T12:18:58;7.83;;;3.85;;
73850;SDS011;62190;51.548;5.688;2023-07-09T12:21:25;5.55;;;3.17;;
73850;SDS011;62190;51.548;5.688;2023-07-09T12:23:54;5.72;;;3.70;;
73850;SDS011;62190;51.548;5.688;2023-07-09T12:26:24;8.20;;;4.17;;
73850;SDS011;62190;51.548;5.688;2023-07-09T12:28:52;5.83;;;3.77;;
73850;SDS011;62190;51.548;5.688;2023-07-09T12:31:28;5.97;;;4.20;;
73850;SDS011;62190;51.548;5.688;2023-07-09T12:33:57;7.40;;;4.00;;
73850;SDS011;62190;51.548;5.688;2023-07-09T12:36:25;12.13;;;3.83;;
73850;SDS011;62190;51.548;5.688;2023-07-09T12:38:55;6.08;;;3.50;;
73850;SDS011;62190;51.548;5.688;2023-07-09T12:41:25;6.10;;;3.60;;
73850;SDS011;62190;51.548;5.688;2023-07-09T12:43:54;7.37;;;4.10;;
73850;SDS011;62190;51.548;5.688;2023-07-09T12:46:22;6.92;;;4.40;;
73850;SDS011;62190;51.548;5.688;2023-07-09T12:48:50;9.23;;;4.37;;
73850;SDS011;62190;51.548;5.688;2023-07-09T12:51:21;5.62;;;3.83;;
73850;SDS011;62190;51.548;5.688;2023-07-09T12:56:39;8.00;;;4.00;;
73850;SDS011;62190;51.548;5.688;2023-07-09T12:59:22;9.08;;;4.30;;
73850;SDS011;62190;51.548;5.688;2023-07-09T13:01:56;7.20;;;4.12;;
73850;SDS011;62190;51.548;5.688;2023-07-09T13:04:33;5.97;;;4.72;;
73850;SDS011;62190;51.548;5.688;2023-07-09T13:07:03;8.60;;;4.08;;
73850;SDS011;62190;51.548;5.688;2023-07-09T13:09:30;7.03;;;4.85;;
73850;SDS011;62190;51.548;5.688;2023-07-09T13:11:58;6.10;;;4.33;;
73850;SDS011;62190;51.548;5.688;2023-07-09T13:14:26;6.60;;;4.35;;
73850;SDS011;62190;51.548;5.688;2023-07-09T13:17:02;6.15;;;4.85;;
73850;SDS011;62190;51.548;5.688;2023-07-09T13:19:35;8.85;;;5.75;;
73850;SDS011;62190;51.548;5.688;2023-07-09T13:22:04;8.53;;;5.15;;
73850;SDS011;62190;51.548;5.688;2023-07-09T13:24:31;7.22;;;5.12;;
73850;SDS011;62190;51.548;5.688;2023-07-09T13:27:00;9.73;;;6.20;;
73850;SDS011;62190;51.548;5.688;2023-07-09T13:29:28;10.85;;;6.83;;
73850;SDS011;62190;51.548;5.688;2023-07-09T13:31:57;12.68;;;8.00;;
73850;SDS011;62190;51.548;5.688;2023-07-09T13:34:26;12.78;;;9.95;;
73850;SDS011;62190;51.548;5.688;2023-07-09T13:36:55;15.55;;;10.90;;
73850;SDS011;62190;51.548;5.688;2023-07-09T13:39:23;15.15;;;11.70;;
73850;SDS011;62190;51.548;5.688;2023-07-09T13:41:51;16.73;;;11.33;;
73850;SDS011;62190;51.548;5.688;2023-07-09T13:44:23;13.72;;;11.57;;
73850;SDS011;62190;51.548;5.688;2023-07-09T13:46:53;15.43;;;11.63;;
73850;SDS011;62190;51.548;5.688;2023-07-09T13:49:22;17.07;;;12.82;;
73850;SDS011;62190;51.548;5.688;2023-07-09T13:51:52;17.48;;;13.58;;
73850;SDS011;62190;51.548;5.688;2023-07-09T13:54:24;17.90;;;13.43;;
73850;SDS011;62190;51.548;5.688;2023-07-09T13:56:51;19.27;;;13.32;;
73850;SDS011;62190;51.548;5.688;2023-07-09T13:59:20;15.50;;;12.85;;
73850;SDS011;62190;51.548;5.688;2023-07-09T14:01:50;19.90;;;13.35;;
73850;SDS011;62190;51.548;5.688;2023-07-09T14:04:19;17.55;;;12.93;;
73850;SDS011;62190;51.548;5.688;2023-07-09T14:06:47;17.48;;;13.43;;
73850;SDS011;62190;51.548;5.688;2023-07-09T14:09:15;16.45;;;11.43;;
73850;SDS011;62190;51.548;5.688;2023-07-09T14:11:51;21.60;;;12.23;;
73850;SDS011;62190;51.548;5.688;2023-07-09T14:14:22;20.82;;;16.27;;
73850;SDS011;62190;51.548;5.688;2023-07-09T14:16:51;56.02;;;21.70;;
73850;SDS011;62190;51.548;5.688;2023-07-09T14:19:20;37.38;;;21.60;;
73850;SDS011;62190;51.548;5.688;2023-07-09T14:21:49;28.85;;;18.30;;
73850;SDS011;62190;51.548;5.688;2023-07-09T14:24:18;31.20;;;20.00;;
73850;SDS011;62190;51.548;5.688;2023-07-09T14:26:48;25.12;;;18.40;;
73850;SDS011;62190;51.548;5.688;2023-07-09T14:29:19;18.42;;;14.87;;
73850;SDS011;62190;51.548;5.688;2023-07-09T14:31:47;18.65;;;14.68;;
73850;SDS011;62190;51.548;5.688;2023-07-09T14:34:31;19.62;;;13.62;;
73850;SDS011;62190;51.548;5.688;2023-07-09T14:36:55;22.80;;;16.23;;
73850;SDS011;62190;51.548;5.688;2023-07-09T14:39:30;13.83;;;11.80;;
73850;SDS011;62190;51.548;5.688;2023-07-09T14:41:55;14.70;;;12.82;;
73850;SDS011;62190;51.548;5.688;2023-07-09T14:44:24;15.23;;;11.38;;
73850;SDS011;62190;51.548;5.688;2023-07-09T14:46:57;12.28;;;10.98;;
73850;SDS011;62190;51.548;5.688;2023-07-09T14:49:25;14.63;;;10.68;;
73850;SDS011;62190;51.548;5.688;2023-07-09T14:51:53;12.30;;;9.03;;
73850;SDS011;62190;51.548;5.688;2023-07-09T14:54:24;13.28;;;10.13;;
73850;SDS011;62190;51.548;5.688;2023-07-09T14:56:53;13.60;;;9.98;;
73850;SDS011;62190;51.548;5.688;2023-07-09T14:59:23;12.58;;;8.13;;
73850;SDS011;62190;51.548;5.688;2023-07-09T15:01:52;11.48;;;10.28;;
73850;SDS011;62190;51.548;5.688;2023-07-09T15:06:55;13.45;;;8.38;;
73850;SDS011;62190;51.548;5.688;2023-07-09T15:09:24;13.10;;;9.18;;
73850;SDS011;62190;51.548;5.688;2023-07-09T15:11:57;11.30;;;9.93;;
73850;SDS011;62190;51.548;5.688;2023-07-09T15:14:25;15.45;;;11.60;;
73850;SDS011;62190;51.548;5.688;2023-07-09T15:16:54;14.13;;;11.30;;